Terminal Aerodrome Forecast
Issued by NWS

Home | Current Version | Previous Version | Text Only | Print | Product List | Glossary Off
Versions: 1 2 3 4 5 6 7 8 9 10 11 12 13 14 15 16 17 18 19 20 21 22 23 24 25 26 27 28 29 30 31 32 33 34 35 36 37 38 39 40 41 42 43 44 45 46

000
FTUS43 KGRB 022330
TAFRHI
TAF
KRHI 022330Z 0300/0324 09004KT P6SM VCSH SCT035 BKN060
      TEMPO 0300/0303 2SM TSRA BR BKN025CB
     FM030900 00000KT 2SM BR SCT002 BKN008
      TEMPO 0310/0314 1/2SM FG VV002
     FM031500 11005KT P6SM BKN010
     FM031800 12005KT P6SM SCT015 BKN030
     FM032200 11005KT P6SM SCT030 SCT100=

USA.gov is the U.S. government's official web portal to all federal, state and local government web resources and services.